Time;durP1;ratioP1;P1;durP2;ratioP2;P2;SDS_P1;SDS_P2;PMS_P1;PMS_P2;Temp;Humidity;BMP_temperature;BMP_pressure;BME280_temperature;BME280_humidity;BME280_pressure;Samples;Min_cycle;Max_cycle;Signal;HPM_P1;HPM_P2
2023/04/22 00:01:39;;;;;;;20.38;14.15;;;;;;;12.36;49.76;100106.06;5067880;28;20066;-68
2023/04/22 00:04:06;;;;;;;21.38;13.98;;;;;;;12.24;50.49;100100.47;5072399;28;20044;-68
2023/04/22 00:06:34;;;;;;;19.10;13.32;;;;;;;12.11;51.41;100110.69;5068243;28;20057;-69
2023/04/22 00:09:02;;;;;;;21.00;13.00;;;;;;;11.96;52.16;100114.03;5064199;28;20401;-68
2023/04/22 00:11:29;;;;;;;19.02;13.27;;;;;;;12.16;51.85;100117.94;5061699;28;20048;-69
2023/04/22 00:13:56;;;;;;;24.95;15.38;;;;;;;12.15;51.96;100124.63;5062950;28;20041;-70
2023/04/22 00:16:26;;;;;;;17.67;13.18;;;;;;;11.76;53.49;100130.59;5059270;28;20227;-69
2023/04/22 00:18:53;;;;;;;20.45;14.05;;;;;;;11.56;54.19;100129.38;5069920;28;20048;-69
2023/04/22 00:21:20;;;;;;;21.20;12.85;;;;;;;11.30;55.10;100126.78;5062790;28;20128;-67
2023/04/22 00:23:48;;;;;;;23.00;13.52;;;;;;;11.37;54.97;100131.78;5069520;28;20051;-68
2023/04/22 00:26:15;;;;;;;19.88;13.10;;;;;;;11.32;55.32;100120.94;5068554;28;20056;-69
2023/04/22 00:28:42;;;;;;;19.60;13.30;;;;;;;11.08;56.49;100121.56;5073327;28;20048;-68
2023/04/22 00:31:10;;;;;;;19.02;13.43;;;;;;;11.34;55.93;100125.00;5067135;28;20059;-68
2023/04/22 00:33:37;;;;;;;17.20;13.23;;;;;;;11.43;55.79;100129.63;5069991;28;20041;-69
2023/04/22 00:36:05;;;;;;;18.85;12.88;;;;;;;11.46;55.52;100120.69;5052212;28;20053;-69
2023/04/22 00:38:32;;;;;;;21.67;13.65;;;;;;;11.56;55.46;100123.88;5034884;28;20519;-67
2023/04/22 00:41:00;;;;;;;19.75;13.13;;;;;;;11.49;55.28;100114.53;5069912;28;20064;-68
2023/04/22 00:43:27;;;;;;;23.13;13.70;;;;;;;11.49;55.41;100120.84;5036268;28;20051;-68
2023/04/22 00:45:56;;;;;;;18.58;13.15;;;;;;;11.61;55.20;100123.66;5055231;28;20056;-68
2023/04/22 00:48:23;;;;;;;23.80;13.18;;;;;;;11.50;55.58;100127.97;5070048;28;20052;-68
2023/04/22 00:50:57;;;;;;;21.08;13.77;;;;;;;11.21;56.35;100122.44;5063750;28;20049;-67
2023/04/22 00:53:25;;;;;;;22.65;12.80;;;;;;;11.17;56.82;100125.09;5034693;28;20389;-69
2023/04/22 00:55:52;;;;;;;22.05;13.52;;;;;;;11.01;57.58;100125.94;5064554;28;20049;-67
2023/04/22 00:58:20;;;;;;;18.55;13.80;;;;;;;11.06;57.50;100110.03;5054260;28;20056;-67
2023/04/22 01:00:49;;;;;;;19.98;12.90;;;;;;;11.11;57.55;100103.53;5052858;28;20746;-66
2023/04/22 01:03:16;;;;;;;23.00;13.90;;;;;;;11.25;57.15;100102.16;5046899;28;20053;-68
2023/04/22 01:05:46;;;;;;;19.30;13.00;;;;;;;11.51;56.33;100090.16;5074187;28;20842;-68
2023/04/22 01:08:13;;;;;;;22.25;14.18;;;;;;;11.27;56.85;100082.53;5063146;28;20581;-68
2023/04/22 01:10:41;;;;;;;18.00;13.05;;;;;;;10.98;57.69;100077.03;5062598;28;20048;-68
2023/04/22 01:13:09;;;;;;;18.92;13.30;;;;;;;11.10;57.57;100083.44;5074701;28;20036;-69
2023/04/22 01:15:36;;;;;;;17.10;12.50;;;;;;;11.20;57.32;100080.31;5056194;28;20049;-68
2023/04/22 01:18:04;;;;;;;19.75;13.35;;;;;;;11.26;57.05;100075.41;5073139;28;20048;-67
2023/04/22 01:20:31;;;;;;;21.98;13.95;;;;;;;11.00;58.04;100070.03;5072306;28;20523;-68
2023/04/22 01:23:02;;;;;;;19.02;13.48;;;;;;;11.27;57.49;100066.81;5069101;28;20056;-67
2023/04/22 01:25:29;;;;;;;21.50;12.07;;;;;;;10.76;57.57;100060.72;5072263;28;20052;-67
2023/04/22 01:27:57;;;;;;;18.40;13.82;;;;;;;10.87;57.86;100059.22;5073583;28;20059;-67
2023/04/22 01:30:25;;;;;;;18.55;13.38;;;;;;;10.92;58.35;100051.59;5056723;28;20060;-68
2023/04/22 01:32:52;;;;;;;19.55;13.35;;;;;;;11.13;57.76;100054.41;5073299;28;20517;-66
2023/04/22 01:35:20;;;;;;;23.98;14.20;;;;;;;11.08;58.16;100058.16;5046927;28;20060;-66
2023/04/22 01:37:47;;;;;;;19.25;14.10;;;;;;;11.05;58.20;100058.81;5054360;28;20056;-66
2023/04/22 01:40:18;;;;;;;18.80;13.93;;;;;;;11.35;57.25;100052.16;5057939;28;20049;-67
2023/04/22 01:42:46;;;;;;;20.98;14.30;;;;;;;11.18;57.80;100052.25;5073267;28;20068;-68
2023/04/22 01:45:16;;;;;;;19.40;13.87;;;;;;;11.17;57.12;100045.16;5070434;28;20644;-66
2023/04/22 01:47:44;;;;;;;16.60;11.75;;;;;;;11.21;55.44;100045.25;5069868;28;20059;-68
2023/04/22 01:50:11;;;;;;;15.07;11.18;;;;;;;11.23;55.02;100038.28;5057986;28;20445;-68
2023/04/22 01:52:39;;;;;;;13.90;10.85;;;;;;;11.58;54.36;100025.06;5052923;28;20053;-67
2023/04/22 01:55:07;;;;;;;14.25;11.02;;;;;;;11.69;53.62;100028.25;5067771;28;20060;-67
2023/04/22 01:57:35;;;;;;;17.40;11.82;;;;;;;11.49;54.25;100016.03;5067815;28;20056;-68
2023/04/22 02:00:04;;;;;;;17.00;11.27;;;;;;;11.33;53.90;100021.34;5055291;28;20057;-68
2023/04/22 02:02:38;;;;;;;18.23;11.30;;;;;;;11.53;53.08;99999.63;5047188;28;20124;-67
2023/04/22 02:05:07;;;;;;;13.93;10.48;;;;;;;11.75;52.82;99997.34;5059803;28;20052;-66
2023/04/22 02:07:35;;;;;;;16.13;10.75;;;;;;;11.62;52.26;99990.16;5059437;28;20057;-67
2023/04/22 02:10:04;;;;;;;16.95;10.63;;;;;;;11.60;52.16;99989.66;5063663;28;20048;-67
2023/04/22 02:12:31;;;;;;;14.98;9.68;;;;;;;11.53;52.26;100010.66;5072134;28;20044;-66
2023/04/22 02:14:59;;;;;;;14.63;9.60;;;;;;;11.76;51.64;100006.44;5072248;28;20055;-67
2023/04/22 02:17:26;;;;;;;14.65;10.20;;;;;;;11.54;52.14;100004.78;5064715;28;20056;-68
2023/04/22 02:19:54;;;;;;;13.50;9.80;;;;;;;11.67;52.03;99998.25;5064696;28;20528;-67
2023/04/22 02:22:22;;;;;;;13.35;10.20;;;;;;;11.86;51.50;99997.72;5062539;28;20045;-67
2023/04/22 02:24:50;;;;;;;14.23;9.40;;;;;;;11.71;51.83;100003.88;5067089;28;20047;-66
2023/04/22 02:27:17;;;;;;;13.77;9.80;;;;;;;11.61;51.96;99998.75;5063239;28;20424;-67
2023/04/22 02:29:47;;;;;;;12.90;9.48;;;;;;;11.65;52.49;100008.81;5059355;28;20056;-67
2023/04/22 02:32:16;;;;;;;16.15;10.88;;;;;;;11.53;52.98;100000.44;5043305;28;20064;-66
2023/04/22 02:34:44;;;;;;;14.85;10.68;;;;;;;11.62;53.10;100005.88;5046399;28;20052;-67
2023/04/22 02:37:12;;;;;;;15.90;11.07;;;;;;;11.69;53.33;100009.75;5049496;28;20045;-66
2023/04/22 02:39:39;;;;;;;13.35;10.50;;;;;;;11.73;53.02;100002.41;5048495;28;20048;-67
2023/04/22 02:42:07;;;;;;;14.30;10.77;;;;;;;11.61;53.11;100007.03;5071957;28;20684;-67
2023/04/22 02:44:34;;;;;;;15.70;10.18;;;;;;;11.78;53.26;100004.97;5072676;28;20048;-66
2023/04/22 02:47:02;;;;;;;15.38;10.82;;;;;;;11.84;52.97;100000.03;5064405;28;20049;-67
2023/04/22 02:49:30;;;;;;;17.10;11.05;;;;;;;11.88;53.06;100009.25;5065816;28;20055;-67
2023/04/22 02:51:57;;;;;;;14.95;10.95;;;;;;;11.78;53.49;99998.63;5068970;28;20051;-67
2023/04/22 02:54:25;;;;;;;16.95;11.43;;;;;;;11.73;53.83;99987.81;5066723;28;20407;-67
2023/04/22 02:56:52;;;;;;;16.52;11.25;;;;;;;11.90;53.68;99999.50;5066285;28;20048;-68
2023/04/22 02:59:19;;;;;;;17.42;11.60;;;;;;;12.14;53.22;99994.03;5068447;28;20045;-67
2023/04/22 03:01:47;;;;;;;17.85;12.50;;;;;;;12.03;53.73;99983.78;5081037;28;20057;-67
2023/04/22 03:04:27;;;;;;;;;;;;;;;11.92;55.27;99972.38;5057925;28;20044;-67
2023/04/22 03:06:55;;;;;;;16.95;12.45;;;;;;;11.56;57.05;99966.66;5068043;28;19932;-68
2023/04/22 03:09:22;;;;;;;18.25;13.82;;;;;;;11.69;57.21;99956.53;5054027;28;20558;-67
2023/04/22 03:11:49;;;;;;;19.50;13.20;;;;;;;11.93;56.57;99956.59;5047660;28;20598;-67
2023/04/22 03:14:17;;;;;;;18.25;14.05;;;;;;;11.62;58.42;99956.22;5055252;28;20063;-68
2023/04/22 03:16:44;;;;;;;20.35;13.50;;;;;;;11.71;58.95;99949.53;5052781;28;20063;-67
2023/04/22 03:19:13;;;;;;;18.13;13.93;;;;;;;11.68;59.79;99939.16;5051160;28;20060;-66
2023/04/22 03:21:41;;;;;;;22.27;13.98;;;;;;;11.65;60.58;99944.53;5064062;28;20056;-67
2023/04/22 03:24:08;;;;;;;21.85;14.82;;;;;;;11.52;61.95;99937.34;5073194;28;20590;-67
2023/04/22 03:26:41;;;;;;;20.52;15.18;;;;;;;11.51;62.53;99927.44;5069230;28;20063;-66
2023/04/22 03:29:09;;;;;;;21.95;15.25;;;;;;;11.47;62.95;99934.81;5071833;28;20063;-67
2023/04/22 03:31:36;;;;;;;18.63;15.25;;;;;;;11.44;63.50;99929.97;5064933;28;20060;-67
2023/04/22 03:34:04;;;;;;;22.52;16.50;;;;;;;11.55;63.54;99928.38;5072157;28;20056;-66
2023/04/22 03:36:32;;;;;;;19.35;14.77;;;;;;;11.37;64.32;99927.72;5049482;28;20052;-66
2023/04/22 03:38:59;;;;;;;20.17;15.48;;;;;;;11.30;64.51;99944.81;5054982;28;20464;-65
2023/04/22 03:41:28;;;;;;;21.25;15.40;;;;;;;11.59;64.05;99943.13;5057939;28;20381;-66
2023/04/22 03:43:55;;;;;;;18.60;14.02;;;;;;;11.41;64.57;99944.41;5060547;28;20049;-66
2023/04/22 03:46:24;;;;;;;22.45;15.80;;;;;;;11.50;64.42;99945.16;5071766;28;20044;-68
2023/04/22 03:48:59;;;;;;;21.65;14.90;;;;;;;11.58;64.21;99952.53;5065785;28;20536;-66
2023/04/22 03:51:31;;;;;;;20.42;15.40;;;;;;;11.65;64.11;99928.81;5064022;28;20059;-66
2023/04/22 03:54:02;;;;;;;20.35;14.63;;;;;;;11.58;64.00;99922.19;5068751;28;20151;-66
2023/04/22 03:56:33;;;;;;;23.17;15.85;;;;;;;11.63;63.64;99908.22;5061474;28;20049;-66
2023/04/22 03:59:00;;;;;;;21.17;15.82;;;;;;;11.73;63.22;99914.13;5069869;28;20051;-67
2023/04/22 04:01:28;;;;;;;21.98;15.80;;;;;;;11.42;64.65;99904.69;5061208;28;20048;-67
2023/04/22 04:03:59;;;;;;;23.23;15.63;;;;;;;11.25;65.36;99917.47;5050112;28;20052;-67
2023/04/22 04:06:34;;;;;;;19.50;15.40;;;;;;;11.41;65.40;99941.66;5069779;28;20052;-67
2023/04/22 04:09:04;;;;;;;20.52;15.70;;;;;;;11.37;65.75;99943.50;5064727;28;20404;-66
2023/04/22 04:11:32;;;;;;;21.97;15.77;;;;;;;11.34;66.37;99934.75;5063578;28;20052;-65
2023/04/22 04:14:02;;;;;;;18.42;15.52;;;;;;;11.27;66.46;99914.38;5071843;28;20055;-66
2023/04/22 04:16:40;;;;;;;;;;;;;;;11.43;65.93;99904.34;5060644;28;20048;-66
2023/04/22 04:19:13;;;;;;;21.45;16.08;;;;;;;11.53;65.42;99870.00;5069485;28;19928;-65
2023/04/22 04:21:41;;;;;;;22.70;16.60;;;;;;;11.34;66.37;99852.03;5071450;28;20052;-65
2023/04/22 04:24:08;;;;;;;18.52;15.00;;;;;;;11.27;67.02;99851.78;5070652;28;20064;-66
2023/04/22 04:26:42;;;;;;;22.85;16.65;;;;;;;11.22;67.31;99843.72;5068811;28;20048;-66
2023/04/22 04:29:14;;;;;;;19.70;16.42;;;;;;;11.15;67.97;99854.50;5068740;28;20052;-66
2023/04/22 04:31:48;;;;;;;24.23;16.75;;;;;;;11.28;67.85;99863.59;5056038;28;20048;-66
2023/04/22 04:34:16;;;;;;;21.35;16.45;;;;;;;11.22;68.19;99884.25;5072148;28;20049;-67
2023/04/22 04:36:45;;;;;;;20.25;16.45;;;;;;;11.38;68.06;99908.09;5075213;28;20519;-65
2023/04/22 04:39:28;;;;;;;21.33;17.02;;;;;;;11.27;68.56;99895.88;5073008;28;20140;-66
2023/04/22 04:41:57;;;;;;;21.95;17.08;;;;;;;11.47;68.40;99890.69;5075891;28;20063;-66
2023/04/22 04:44:27;;;;;;;22.65;17.33;;;;;;;11.37;69.42;99875.34;5051861;28;20425;-66
2023/04/22 04:46:56;;;;;;;23.35;16.92;;;;;;;11.59;68.93;99857.63;5087584;28;20052;-66
2023/04/22 04:49:25;;;;;;;28.15;18.40;;;;;;;11.37;70.60;99869.06;5073732;28;20064;-65
2023/04/22 04:51:57;;;;;;;26.70;19.05;;;;;;;11.32;71.21;99857.06;5060768;28;20689;-65
2023/04/22 04:54:26;;;;;;;26.02;19.80;;;;;;;11.18;73.47;99864.81;5060849;28;20062;-66
2023/04/22 04:56:54;;;;;;;27.58;20.05;;;;;;;11.28;74.28;99842.34;5068659;28;20044;-66
2023/04/22 04:59:21;;;;;;;27.38;19.48;;;;;;;11.36;74.40;99843.41;5074833;28;20049;-66
2023/04/22 05:01:49;;;;;;;24.95;19.92;;;;;;;11.10;76.75;99851.94;5073067;28;20051;-65
2023/04/22 05:04:16;;;;;;;29.27;21.48;;;;;;;11.15;76.95;99843.47;5077361;28;20049;-67
2023/04/22 05:06:44;;;;;;;24.45;19.38;;;;;;;10.98;77.81;99845.56;5073240;28;20049;-67
2023/04/22 05:09:14;;;;;;;27.98;21.15;;;;;;;10.98;79.12;99827.06;5076951;28;20063;-67
2023/04/22 05:11:43;;;;;;;30.65;22.17;;;;;;;11.26;77.81;99822.59;5077044;28;20045;-68
2023/04/22 05:14:15;;;;;;;32.80;22.50;;;;;;;11.16;78.69;99855.28;5068998;28;20057;-67
2023/04/22 05:16:45;;;;;;;29.27;21.95;;;;;;;10.99;79.95;99875.53;5054418;28;20053;-66
2023/04/22 05:19:13;;;;;;;31.38;21.85;;;;;;;11.22;79.78;99874.03;5040372;28;20056;-66
2023/04/22 05:21:41;;;;;;;31.00;23.40;;;;;;;10.96;81.44;99880.91;5081123;28;20492;-66
2023/04/22 05:24:09;;;;;;;30.85;23.55;;;;;;;11.01;81.82;99892.53;5064282;28;20060;-66
2023/04/22 05:26:36;;;;;;;30.45;23.10;;;;;;;11.06;81.83;99874.97;5064448;28;20037;-67
2023/04/22 05:29:10;;;;;;;30.88;22.25;;;;;;;11.08;80.72;99864.44;5067407;28;20056;-67
2023/04/22 05:31:38;;;;;;;34.25;23.10;;;;;;;10.87;82.21;99860.88;5070953;28;20094;-66
2023/04/22 05:34:06;;;;;;;29.77;23.55;;;;;;;10.86;82.56;99887.59;5078750;28;20075;-65
2023/04/22 05:36:34;;;;;;;30.48;23.17;;;;;;;10.79;83.38;99911.34;5074674;28;20056;-67
2023/04/22 05:39:01;;;;;;;30.27;23.25;;;;;;;10.70;84.12;99938.94;5060085;28;20060;-67
2023/04/22 05:41:31;;;;;;;29.48;23.30;;;;;;;10.57;85.83;99952.94;5075250;28;20052;-68
2023/04/22 05:43:58;;;;;;;33.13;24.63;;;;;;;10.56;86.97;99963.16;5062298;28;20053;-66
2023/04/22 05:46:28;;;;;;;30.17;23.58;;;;;;;10.67;87.21;99941.56;5060896;28;20416;-65
2023/04/22 05:48:56;;;;;;;32.40;24.95;;;;;;;10.68;87.95;99929.38;5074857;28;20049;-66
2023/04/22 05:51:42;;;;;;;31.85;24.67;;;;;;;10.79;88.56;99906.63;5070809;28;20041;-66
2023/04/22 05:54:12;;;;;;;30.98;24.95;;;;;;;10.54;89.45;99904.03;5072952;28;20045;-67
2023/04/22 05:56:40;;;;;;;36.00;26.70;;;;;;;10.48;90.39;99902.63;5065083;28;20055;-67
2023/04/22 05:59:07;;;;;;;33.63;26.15;;;;;;;10.76;90.38;99900.97;5055752;28;20052;-68
2023/04/22 06:01:38;;;;;;;34.22;25.60;;;;;;;10.80;88.93;99901.94;5056333;28;20057;-67
2023/04/22 06:04:08;;;;;;;32.85;25.58;;;;;;;10.67;90.42;99903.78;5071933;28;20063;-67
2023/04/22 06:06:36;;;;;;;37.53;25.88;;;;;;;10.72;90.93;99927.59;5073403;28;20049;-66
2023/04/22 06:09:05;;;;;;;38.15;26.15;;;;;;;10.60;91.77;99928.28;5038067;28;20052;-67
2023/04/22 06:11:33;;;;;;;36.55;25.60;;;;;;;10.57;92.51;99917.13;5075449;28;20815;-67
2023/04/22 06:14:00;;;;;;;32.88;25.50;;;;;;;10.68;92.21;99921.94;5074717;28;20045;-67
2023/04/22 06:16:28;;;;;;;34.70;26.20;;;;;;;10.53;92.53;99914.22;5057840;28;20048;-67
2023/04/22 06:18:55;;;;;;;36.95;26.23;;;;;;;10.71;92.50;99910.25;5049841;28;20052;-68
2023/04/22 06:21:24;;;;;;;32.38;25.65;;;;;;;10.62;92.83;99905.91;5063856;28;20540;-66
2023/04/22 06:23:51;;;;;;;33.13;25.88;;;;;;;10.62;92.09;99920.50;5072007;28;20064;-66
2023/04/22 06:26:21;;;;;;;36.78;27.13;;;;;;;10.60;92.74;99917.28;5071538;28;20131;-66
2023/04/22 06:28:48;;;;;;;35.08;27.13;;;;;;;10.51;93.69;99929.50;5058542;28;20075;-67
2023/04/22 06:31:19;;;;;;;34.05;27.23;;;;;;;10.57;94.29;99930.91;5073947;28;20048;-67
2023/04/22 06:33:47;;;;;;;36.20;27.17;;;;;;;10.86;94.19;99928.94;5057822;28;20068;-67
2023/04/22 06:36:15;;;;;;;33.17;26.02;;;;;;;10.93;93.36;99929.22;5050136;28;20055;-67
2023/04/22 06:38:45;;;;;;;;;;;;;;;10.76;93.13;99934.03;5057964;28;20063;-66
2023/04/22 06:41:34;;;;;;;33.50;25.67;;;;;;;10.81;94.14;99925.59;5051886;28;20507;-67
2023/04/22 06:44:08;;;;;;;36.70;26.02;;;;;;;10.77;93.96;99930.97;5074217;28;20052;-66
2023/04/22 06:46:49;;;;;;;34.25;26.95;;;;;;;10.54;94.48;99932.38;5058056;28;20511;-66
2023/04/22 06:49:37;;;;;;;34.75;26.42;;;;;;;10.49;95.35;99929.81;5056269;28;20052;-67
2023/04/22 06:52:28;;;;;;;38.00;26.98;;;;;;;10.53;96.03;99927.22;5060128;28;20064;-66
2023/04/22 06:54:57;;;;;;;32.78;26.58;;;;;;;10.52;96.06;99920.88;5068564;28;20040;-66
2023/04/22 06:57:25;;;;;;;38.42;26.58;;;;;;;10.45;96.40;99917.84;5071742;28;20060;-67
2023/04/22 06:59:52;;;;;;;36.45;26.70;;;;;;;10.53;96.71;99919.75;5073374;28;20049;-67
2023/04/22 07:02:20;;;;;;;35.08;27.17;;;;;;;10.54;96.46;99915.88;5072325;28;20083;-66
2023/04/22 07:04:49;;;;;;;33.80;26.20;;;;;;;10.91;95.44;99908.66;5054384;28;20067;-67
2023/04/22 07:07:16;;;;;;;33.75;26.20;;;;;;;10.61;95.13;99901.56;5051497;28;20063;-68
2023/04/22 07:09:44;;;;;;;35.83;26.95;;;;;;;10.40;96.44;99897.97;5053551;28;20052;-68
2023/04/22 07:12:11;;;;;;;36.13;26.73;;;;;;;10.65;96.59;99897.00;5065833;28;20044;-67
2023/04/22 07:14:45;;;;;;;37.08;27.40;;;;;;;10.83;96.82;99904.00;5064358;28;20053;-68
2023/04/22 07:17:13;;;;;;;34.85;27.17;;;;;;;10.68;96.73;99908.16;5068319;28;20430;-68
2023/04/22 07:19:40;;;;;;;31.20;25.77;;;;;;;10.84;96.72;99911.97;5080844;28;20059;-67
2023/04/22 07:22:08;;;;;;;32.30;25.35;;;;;;;10.89;96.43;99903.50;5055149;28;20049;-68
2023/04/22 07:24:36;;;;;;;35.67;24.70;;;;;;;10.87;95.78;99911.28;5068587;28;20112;-67
2023/04/22 07:27:03;;;;;;;35.95;25.70;;;;;;;10.88;96.40;99915.63;5066610;28;20056;-67
2023/04/22 07:29:30;;;;;;;31.15;24.65;;;;;;;10.99;97.11;99913.28;5070158;28;20540;-67
2023/04/22 07:31:59;;;;;;;32.80;25.65;;;;;;;11.12;96.21;99921.28;5076764;28;20055;-68
2023/04/22 07:34:26;;;;;;;31.70;24.73;;;;;;;11.17;95.81;99907.34;5054481;28;20412;-67
2023/04/22 07:36:54;;;;;;;32.65;25.30;;;;;;;10.95;96.38;99909.59;5073065;28;20052;-66
2023/04/22 07:39:21;;;;;;;32.67;25.27;;;;;;;11.01;97.44;99914.59;5072411;28;20056;-68
2023/04/22 07:41:50;;;;;;;29.85;24.83;;;;;;;11.28;96.13;99914.03;5070468;28;20052;-66
2023/04/22 07:44:20;;;;;;;34.42;24.33;;;;;;;11.06;96.52;99903.34;5072957;28;20049;-66
2023/04/22 07:46:49;;;;;;;32.15;24.55;;;;;;;11.15;96.41;99906.84;5069548;28;20056;-68
2023/04/22 07:49:16;;;;;;;31.33;25.13;;;;;;;11.27;94.95;99900.59;5053216;28;20053;-65
2023/04/22 07:51:43;;;;;;;30.58;24.75;;;;;;;11.32;95.30;99903.13;5068539;28;20055;-65
2023/04/22 07:54:11;;;;;;;31.63;23.05;;;;;;;11.47;95.03;99897.00;5069419;28;20423;-65
2023/04/22 07:56:38;;;;;;;30.42;23.65;;;;;;;11.29;96.01;99903.81;5071839;28;20040;-66
2023/04/22 07:59:05;;;;;;;30.35;22.75;;;;;;;11.33;96.00;99902.78;5070043;28;20055;-64
2023/04/22 08:01:33;;;;;;;29.95;22.98;;;;;;;11.25;97.30;99902.88;5060011;28;20052;-65
2023/04/22 08:04:00;;;;;;;32.03;24.90;;;;;;;11.43;97.42;99903.53;5066111;28;20044;-65
2023/04/22 08:06:28;;;;;;;29.55;23.00;;;;;;;11.85;95.83;99899.56;5060158;28;20040;-65
2023/04/22 08:08:55;;;;;;;29.85;23.52;;;;;;;11.68;95.07;99899.75;5044444;28;20061;-66
2023/04/22 08:11:23;;;;;;;29.08;23.40;;;;;;;11.31;97.41;99896.03;5067538;28;20049;-64
2023/04/22 08:13:50;;;;;;;29.95;23.33;;;;;;;11.39;97.98;99900.63;5067988;28;20052;-66
2023/04/22 08:16:18;;;;;;;30.30;23.00;;;;;;;11.47;98.53;99898.94;5071329;28;20403;-65
2023/04/22 08:18:45;;;;;;;30.65;23.02;;;;;;;11.75;98.27;99906.28;5070340;28;20052;-66
2023/04/22 08:21:13;;;;;;;28.27;22.30;;;;;;;11.75;97.87;99911.03;5070203;28;20492;-68
2023/04/22 08:23:40;;;;;;;28.40;23.08;;;;;;;11.69;99.10;99909.63;5067722;28;20048;-66
2023/04/22 08:26:13;;;;;;;29.08;22.90;;;;;;;11.81;99.47;99921.50;5072283;28;20051;-69
2023/04/22 08:28:41;;;;;;;27.38;22.70;;;;;;;11.80;98.71;99922.63;5071198;28;20048;-66
2023/04/22 08:31:10;;;;;;;28.50;23.08;;;;;;;11.97;98.74;99918.91;5063029;28;20591;-66
2023/04/22 08:33:41;;;;;;;49.60;24.43;;;;;;;11.98;99.27;99921.31;5072241;28;20530;-66
2023/04/22 08:36:09;;;;;;;46.10;22.98;;;;;;;12.07;99.36;99919.25;5062184;28;20310;-66
2023/04/22 08:38:37;;;;;;;45.83;21.77;;;;;;;11.91;100.00;99917.50;5070322;28;20057;-67
2023/04/22 08:41:04;;;;;;;39.88;20.98;;;;;;;12.15;100.00;99923.09;5069329;28;20059;-66
2023/04/22 08:43:33;;;;;;;36.13;20.20;;;;;;;12.15;99.91;99929.38;5073360;28;20377;-65
2023/04/22 08:46:01;;;;;;;51.00;21.15;;;;;;;12.30;100.00;99922.41;5063666;28;20060;-65
2023/04/22 08:48:28;;;;;;;27.90;16.60;;;;;;;12.39;99.13;99914.81;5060984;28;20056;-65
2023/04/22 08:50:57;;;;;;;25.88;17.98;;;;;;;12.37;99.32;99922.63;5068950;28;20048;-64
2023/04/22 08:53:25;;;;;;;21.20;16.42;;;;;;;12.39;99.67;99928.63;5062669;28;20167;-65
2023/04/22 08:55:55;;;;;;;18.58;15.90;;;;;;;12.44;99.39;99923.69;5063457;28;20060;-65
2023/04/22 08:58:23;;;;;;;19.02;16.38;;;;;;;12.65;99.33;99929.09;5072529;28;20048;-65
2023/04/22 09:00:50;;;;;;;22.52;17.05;;;;;;;12.68;98.53;99936.66;5065399;28;20563;-65
2023/04/22 09:03:18;;;;;;;19.08;15.95;;;;;;;12.85;98.39;99939.19;5072220;28;20057;-66
2023/04/22 09:05:46;;;;;;;18.52;15.25;;;;;;;12.95;97.27;99927.69;5057351;28;21094;-65
2023/04/22 09:08:13;;;;;;;20.05;15.70;;;;;;;12.88;98.00;99932.16;5068014;28;20509;-66
2023/04/22 09:10:41;;;;;;;17.85;15.43;;;;;;;12.89;98.24;99940.09;5066892;28;20055;-66
2023/04/22 09:13:08;;;;;;;22.92;15.60;;;;;;;13.11;98.13;99936.88;5070626;28;20047;-65
2023/04/22 09:15:36;;;;;;;24.02;15.75;;;;;;;13.17;97.29;99941.03;5055586;28;20476;-65
2023/04/22 09:18:04;;;;;;;20.35;15.18;;;;;;;13.28;96.84;99944.09;5073575;28;20051;-64
2023/04/22 09:20:31;;;;;;;19.60;14.77;;;;;;;13.28;96.45;99942.16;5069196;28;20044;-66
2023/04/22 09:23:03;;;;;;;19.48;14.40;;;;;;;13.49;96.61;99941.97;5047056;28;20056;-66
2023/04/22 09:25:34;;;;;;;22.38;14.25;;;;;;;13.60;95.98;99948.59;5071892;28;20056;-66
2023/04/22 09:28:02;;;;;;;23.85;13.73;;;;;;;13.70;95.63;99948.09;5068885;28;20056;-65
2023/04/22 09:30:31;;;;;;;15.70;12.13;;;;;;;13.53;95.92;99948.38;5073033;28;20060;-66
2023/04/22 09:33:03;;;;;;;17.92;11.50;;;;;;;13.55;96.34;99949.66;5072393;28;20049;-66
2023/04/22 09:35:32;;;;;;;13.68;10.70;;;;;;;13.46;96.70;99960.06;5073419;28;20052;-65
2023/04/22 09:38:06;;;;;;;13.17;10.00;;;;;;;13.38;97.37;99961.00;5070872;28;20052;-65
2023/04/22 09:40:34;;;;;;;14.93;11.27;;;;;;;13.51;97.65;99962.56;5055394;28;20287;-65
2023/04/22 09:43:05;;;;;;;15.70;11.10;;;;;;;13.74;97.72;99971.13;5075367;28;20051;-64
2023/04/22 09:45:40;;;;;;;13.07;10.10;;;;;;;13.63;96.86;99978.34;5070223;28;20044;-66
2023/04/22 09:48:13;;;;;;;13.38;9.48;;;;;;;13.65;96.36;99976.00;5074553;28;20033;-65
2023/04/22 09:50:48;;;;;;;14.63;9.23;;;;;;;13.82;96.01;99983.22;5074241;28;20049;-65
2023/04/22 09:53:18;;;;;;;10.38;8.32;;;;;;;13.73;93.98;99994.44;5067187;28;20052;-65
2023/04/22 09:55:50;;;;;;;11.70;8.80;;;;;;;13.81;94.14;99992.69;5068794;28;20067;-66
2023/04/22 09:58:19;;;;;;;11.68;8.85;;;;;;;13.73;93.86;100008.28;5046253;28;20044;-65
2023/04/22 10:00:49;;;;;;;12.32;8.38;;;;;;;13.50;94.59;100008.00;5058463;28;20056;-66
2023/04/22 10:03:17;;;;;;;11.73;8.15;;;;;;;13.45;94.82;100024.03;5065404;28;20412;-65
2023/04/22 10:05:45;;;;;;;10.90;7.95;;;;;;;13.44;94.30;100014.94;5060972;28;20056;-65
2023/04/22 10:08:14;;;;;;;11.95;8.50;;;;;;;13.50;93.67;100016.31;5064045;28;20049;-66
2023/04/22 10:10:41;;;;;;;10.27;7.82;;;;;;;13.57;93.48;100024.81;5060316;28;20063;-66
2023/04/22 10:13:09;;;;;;;12.57;8.52;;;;;;;13.50;92.69;100026.56;5070025;28;20056;-65
2023/04/22 10:15:56;;;;;;;12.85;8.70;;;;;;;13.43;91.78;100018.88;5069205;28;20049;-65
2023/04/22 10:18:25;;;;;;;11.75;8.98;;;;;;;13.48;92.64;100024.16;5072021;28;20052;-66
2023/04/22 10:20:55;;;;;;;12.43;8.38;;;;;;;13.55;92.61;100029.91;5055704;28;20060;-66
2023/04/22 10:23:23;;;;;;;12.60;8.80;;;;;;;13.58;92.53;100036.72;5073025;28;20045;-66
2023/04/22 10:25:53;;;;;;;14.63;10.13;;;;;;;13.48;91.99;100028.88;5059362;28;20094;-65
2023/04/22 10:28:22;;;;;;;13.98;9.55;;;;;;;13.23;93.01;100024.56;5057656;28;20052;-68
2023/04/22 10:30:50;;;;;;;13.80;9.88;;;;;;;13.02;94.15;100034.94;5071088;28;20048;-68
2023/04/22 10:33:20;;;;;;;12.70;9.82;;;;;;;13.38;93.91;100037.66;5052812;28;20052;-65
2023/04/22 10:36:20;;;;;;;14.25;9.88;;;;;;;13.43;92.34;100043.75;5074300;28;20060;-65
2023/04/22 10:38:53;;;;;;;12.07;8.95;;;;;;;13.40;91.56;100044.47;5039735;28;20057;-66
2023/04/22 10:41:34;;;;;;;12.48;9.85;;;;;;;13.23;91.04;100041.94;5069960;28;20044;-67
2023/04/22 10:44:06;;;;;;;11.52;9.20;;;;;;;13.34;91.67;100051.38;5056223;28;20061;-66
2023/04/22 10:46:35;;;;;;;13.27;9.80;;;;;;;13.35;91.46;100052.19;5068703;28;20056;-68
2023/04/22 10:49:11;;;;;;;11.80;9.18;;;;;;;13.57;89.96;100057.22;5071133;28;20045;-67
2023/04/22 10:51:58;;;;;;;12.40;9.43;;;;;;;13.55;89.81;100065.88;5067736;28;20056;-66
2023/04/22 10:57:15;;;;;;;12.27;9.40;;;;;;;13.51;88.28;100076.00;5068861;28;20052;-68
2023/04/22 10:59:46;;;;;;;14.20;10.23;;;;;;;13.63;87.96;100077.97;5080086;28;20079;-68
2023/04/22 11:02:17;;;;;;;15.98;11.52;;;;;;;13.43;89.20;100078.91;5067065;28;20055;-65
2023/04/22 11:04:45;;;;;;;15.85;10.38;;;;;;;13.50;88.03;100085.47;5067967;28;20055;-70
2023/04/22 11:07:25;;;;;;;15.27;11.40;;;;;;;13.40;89.16;100099.78;5069532;28;20052;-69
2023/04/22 11:09:59;;;;;;;16.85;10.43;;;;;;;13.25;87.07;100097.69;5059645;28;20052;-69
2023/04/22 11:12:40;;;;;;;14.30;10.95;;;;;;;12.82;88.33;100102.13;5068090;28;20052;-67
2023/04/22 11:15:10;;;;;;;13.40;10.88;;;;;;;12.83;89.27;100110.06;5069381;28;20415;-68
2023/04/22 11:17:39;;;;;;;14.63;11.00;;;;;;;12.66;89.49;100117.78;5073022;28;20506;-66
2023/04/22 11:20:07;;;;;;;14.20;11.40;;;;;;;12.71;90.54;100110.06;5058730;28;20061;-67
2023/04/22 11:22:37;;;;;;;14.45;11.00;;;;;;;13.10;90.00;100109.47;5068749;28;20048;-66
2023/04/22 11:25:05;;;;;;;16.40;11.98;;;;;;;13.08;88.34;100114.53;5060866;28;20044;-65
2023/04/22 11:27:32;;;;;;;15.10;11.65;;;;;;;13.28;87.11;100112.81;5070612;28;20045;-67
2023/04/22 11:29:59;;;;;;;15.18;11.13;;;;;;;13.51;86.08;100119.50;5063183;28;20063;-67